Terminal Aerodrome Forecast
Issued by NWS

Home | Current Version | Previous Version | Text Only | Print | Product List | Glossary On
Versions: 1 2 3 4 5 6 7 8 9 10 11 12 13 14 15 16
268
FTUS46 KSTO 071213 AAA
TAFSAC
TAF AMD
KSAC 071213Z 0712/0812 00000KT 2SM BR SKC
      TEMPO 0712/0715 4SM BR
     FM071500 VRB05KT 4SM BR SKC
     FM072100 35008KT P6SM SKC
     FM080300 35004KT P6SM SKC
     FM080900 34004KT 4SM BR SKC=

USA.gov is the U.S. government's official web portal to all federal, state and local government web resources and services.